Cotes De Bretagne — FW3973 — position and weather

sailwx.info

Track history (hours):
 
Tides and Currents Weather Stations Pressure Air Temp Water Temp Dewpoint Dewpoint Depression Visibility Wind Speed Wind Dir Waves Ship Positions

Cotes De Bretagne

Last reported at 2017-May-29 22:30 UTC. Time now 2017-May-29 22:43 UTC.
Position N 47°36' W 003°35'.

Length 75 m; draft 4.2 m.

Type: Dredging. MMSI: 227003850.

Date/timePositionNaut miles runAvg speedWind from/ knotsBaromVisibWave heightAir tempDewpointWater temp
2017-May-29 22:30N 47°36' W 003°35'510.7
2017-May-29 22:00N 47°40' W 003°41'510.7
2017-May-29 21:30N 47°43' W 003°48'710.7
2017-May-29 20:48N 47°47' W 003°57'810.1
2017-May-29 19:58N 47°52' W 004°07'4 1.2
2017-May-29 16:53N 47°56' W 004°07'4 3.9
2017-May-29 15:59N 47°52' W 004°07'5 2.3
2017-May-29 13:58N 47°49' W 004°03'5 9.3
2017-May-29 13:25N 47°46' W 003°56'4 9.4
2017-May-29 12:58N 47°44' W 003°50'4 9.3
2017-May-29 12:30N 47°42' W 003°45'5 9.2
2017-May-29 11:56N 47°38' W 003°39'4 9.0
2017-May-29 11:30N 47°36' W 003°35'5 9.3
2017-May-29 11:00N 47°33' W 003°30'5 9.2
2017-May-29 10:30N 47°30' W 003°25'5 9.5
2017-May-29 10:00N 47°27' W 003°19'5 9.7
2017-May-29 09:30N 47°25' W 003°13'4 8.9
2017-May-29 09:00N 47°23' W 003°07'4 8.0
2017-May-29 08:30N 47°20' W 003°02'4 7.9
2017-May-29 08:00N 47°17' W 002°58'4 8.6
2017-May-29 07:30N 47°14' W 002°54'20 8.4
2017-May-29 05:07N 46°59' W 002°35'1 8.8
2017-May-29 05:00N 46°58' W 002°34'8 8.7
2017-May-29 04:02N 46°52' W 002°25'1 9.0
2017-May-29 03:59N 46°52' W 002°25'4 8.8
2017-May-29 03:30N 46°49' W 002°20'4 8.7
2017-May-29 03:00N 46°46' W 002°16'5 9.3
2017-May-29 02:25N 46°41' W 002°11'4 9.2
2017-May-29 01:59N 46°38' W 002°08'4 9.1
2017-May-29 01:30N 46°34' W 002°04'5 9.3
2017-May-29 01:00N 46°31' W 002°00'5 9.2
2017-May-29 00:30N 46°27' W 001°57'5 9.2
2017-May-29 00:00N 46°23' W 001°53'5 9.4
2017-May-28 23:30N 46°19' W 001°49'5 9.6
2017-May-28 23:00N 46°15' W 001°45'5 9.2
2017-May-28 22:29N 46°11' W 001°41'5 9.5
2017-May-28 22:00N 46°07' W 001°38'3 5.6
2017-May-28 21:30N 46°05' W 001°35'0 0.4
2017-May-28 21:00N 46°05' W 001°36'0 0.3
2017-May-28 20:30N 46°05' W 001°35'0 0.1
2017-May-28 20:00N 46°05' W 001°35'1 2.5
2017-May-28 19:31N 46°06' W 001°37'510.3
2017-May-28 19:00N 46°10' W 001°41'710.3
2017-May-28 18:22N 46°16' W 001°45'410.4
2017-May-28 18:00N 46°20' W 001°45'510.3
2017-May-28 17:30N 46°25' W 001°46'5 9.4
2017-May-28 17:00N 46°30' W 001°48'0 0.7
2017-May-28 16:30N 46°30' W 001°48'0 0.0
2017-May-28 16:00N 46°30' W 001°48'0 0.0
2017-May-28 15:30N 46°30' W 001°48'1 2.0
2017-May-28 15:00N 46°29' W 001°47'6 6.5
2017-May-28 14:00N 46°23' W 001°46'4 8.6
2017-May-28 13:30N 46°18' W 001°46'6 9.0
2017-May-28 12:53N 46°13' W 001°44'3 9.0
2017-May-28 12:30N 46°10' W 001°41'6 1.9
2017-May-28 09:12N 46°05' W 001°35'0 1.0
2017-May-28 09:00N 46°05' W 001°36'5 7.8
2017-May-28 08:22N 46°08' W 001°42'410.3
2017-May-28 07:57N 46°11' W 001°46'510.9
2017-May-28 07:30N 46°15' W 001°50'610.9
2017-May-28 07:00N 46°20' W 001°53'510.9
2017-May-28 06:30N 46°25' W 001°57'510.8
2017-May-28 06:00N 46°30' W 002°00'510.9
2017-May-28 05:30N 46°34' W 002°04'510.7
2017-May-28 05:00N 46°39' W 002°09'510.7
2017-May-28 04:30N 46°43' W 002°13'510.9
2017-May-28 04:00N 46°47' W 002°19'510.9
2017-May-28 03:30N 46°51' W 002°24'510.5
2017-May-28 03:01N 46°55' W 002°29'510.1
2017-May-28 02:31N 46°59' W 002°34'810.1
2017-May-28 01:45N 47°04' W 002°42'3 9.6
2017-May-28 01:27N 47°06' W 002°45'510.0
2017-May-28 01:00N 47°09' W 002°50'510.2
2017-May-28 00:30N 47°13' W 002°54'5 9.5
2017-May-28 00:00N 47°17' W 002°59'5 9.9
2017-May-27 23:30N 47°21' W 003°04'5 9.8
2017-May-27 23:00N 47°24' W 003°09'5 9.3
2017-May-27 22:30N 47°26' W 003°15'5 9.7
2017-May-27 22:00N 47°28' W 003°21'510.3
2017-May-27 21:30N 47°32' W 003°27'510.6
2017-May-27 21:00N 47°35' W 003°33'510.7
2017-May-27 20:30N 47°39' W 003°39'510.8
2017-May-27 20:00N 47°42' W 003°46'510.7
2017-May-27 19:30N 47°45' W 003°52'710.6
2017-May-27 18:54N 47°48' W 004°01'8 8.8
2017-May-27 17:58N 47°54' W 004°09'5 3.7
2017-May-27 16:44N 47°58' W 004°06'0 0.0
2017-May-27 15:58N 47°58' W 004°06'5 4.6
2017-May-27 14:58N 47°54' W 004°09'6 6.1
2017-May-27 13:58N 47°49' W 004°03'3 6.7
2017-May-27 13:27N 47°47' W 003°59'3 6.8
2017-May-27 12:57N 47°46' W 003°54'3 7.4
2017-May-27 12:30N 47°44' W 003°50'4 7.5
2017-May-27 12:00N 47°42' W 003°46'4 7.4
2017-May-27 11:30N 47°40' W 003°41'4 7.3
2017-May-27 11:00N 47°37' W 003°37'4 7.4
2017-May-27 10:30N 47°35' W 003°33'4 8.4
2017-May-27 10:00N 47°32' W 003°28'4 8.2
2017-May-27 09:30N 47°29' W 003°24'4 8.4
2017-May-27 09:00N 47°27' W 003°19'5 9.3
2017-May-27 08:30N 47°25' W 003°13'510.1
2017-May-27 08:00N 47°22' W 003°06'4 8.8
2017-May-27 07:30N 47°19' W 003°01'4 8.5
2017-May-27 07:00N 47°16' W 002°57'4 8.7
2017-May-27 06:30N 47°13' W 002°53'4 8.4
2017-May-27 06:00N 47°09' W 002°49'33 7.8
2017-May-27 01:47N 46°46' W 002°16'3 8.5
2017-May-27 01:26N 46°43' W 002°13'4 8.8
2017-May-27 00:58N 46°40' W 002°10'4 8.6
2017-May-27 00:29N 46°37' W 002°06'4 8.7
2017-May-27 00:00N 46°33' W 002°03'4 8.6
2017-May-26 23:30N 46°30' W 001°59'4 8.7
2017-May-26 23:00N 46°26' W 001°56'4 8.9
2017-May-26 22:30N 46°22' W 001°52'4 8.9
2017-May-26 22:00N 46°18' W 001°49'5 9.0
2017-May-26 21:24N 46°14' W 001°45'4 8.7
2017-May-26 20:58N 46°11' W 001°42'4 9.2
2017-May-26 20:30N 46°07' W 001°38'3 5.8
2017-May-26 20:00N 46°05' W 001°35'0 0.6
2017-May-26 19:30N 46°05' W 001°36'0 0.1
2017-May-26 19:01N 46°05' W 001°36'0 0.5
2017-May-26 18:30N 46°05' W 001°35'0 1.0
2017-May-26 18:00N 46°05' W 001°36'510.1
2017-May-26 17:30N 46°09' W 001°40'611.0
2017-May-26 17:00N 46°14' W 001°43'510.8
2017-May-26 16:30N 46°20' W 001°45'510.5
2017-May-26 16:00N 46°25' W 001°46'5 9.6
2017-May-26 15:30N 46°30' W 001°48'0 0.9
2017-May-26 15:00N 46°30' W 001°48'0 0.0
2017-May-26 14:00N 46°30' W 001°48'1 1.1
2017-May-26 13:30N 46°29' W 001°48'3 5.2
2017-May-26 13:00N 46°27' W 001°46'3 6.6
2017-May-26 12:30N 46°24' W 001°45'4 9.0
2017-May-26 12:00N 46°20' W 001°43'510.1
2017-May-26 11:30N 46°15' W 001°40'10 4.3
2017-May-26 09:09N 46°05' W 001°36'0 0.5
2017-May-26 08:58N 46°05' W 001°36'0 0.2
2017-May-26 08:30N 46°05' W 001°36'0 0.1
2017-May-26 08:00N 46°05' W 001°36'1 1.6
2017-May-26 07:30N 46°06' W 001°37'5 9.6
2017-May-26 07:00N 46°10' W 001°40'510.5
2017-May-26 06:29N 46°14' W 001°44'510.4
2017-May-26 06:00N 46°18' W 001°49'510.4
2017-May-26 05:30N 46°23' W 001°53'510.4
2017-May-26 05:00N 46°27' W 001°57'510.5
2017-May-26 04:30N 46°31' W 002°01'510.6
2017-May-26 04:00N 46°36' W 002°06'510.6
2017-May-26 03:30N 46°40' W 002°10'510.7
2017-May-26 03:00N 46°44' W 002°15'611.1
2017-May-26 02:29N 46°49' W 002°20'510.9
2017-May-26 02:00N 46°52' W 002°26'1010.3
2017-May-26 01:03N 47°00' W 002°35'110.1
2017-May-26 00:57N 47°01' W 002°35'610.1
2017-May-26 00:21N 47°06' W 002°41'410.4
2017-May-26 00:00N 47°08' W 002°45'5 9.8
2017-May-25 23:30N 47°12' W 002°50'5 9.7
2017-May-25 23:00N 47°16' W 002°54'5 9.4
2017-May-25 22:30N 47°19' W 002°59'5 9.5
2017-May-25 22:00N 47°22' W 003°05'5 9.7
2017-May-25 21:30N 47°24' W 003°11'5 9.6
2017-May-25 21:00N 47°27' W 003°17'5 9.5
2017-May-25 20:30N 47°30' W 003°22'510.0
2017-May-25 20:00N 47°33' W 003°28'510.0
2017-May-25 19:30N 47°36' W 003°34'5 9.9
2017-May-25 19:00N 47°39' W 003°40'510.1
2017-May-25 18:30N 47°42' W 003°46'1010.2
2017-May-25 17:33N 47°47' W 003°58'610.0
2017-May-25 16:58N 47°50' W 004°05'8 6.1
2017-May-25 15:38N 47°58' W 004°06'9 2.9
2017-May-25 12:33N 47°49' W 004°05'14 5.7
2017-May-25 10:10N 47°43' W 003°48'1 6.2
2017-May-25 10:00N 47°42' W 003°47'4 7.4
2017-May-25 09:30N 47°40' W 003°42'4 7.7
2017-May-25 09:00N 47°37' W 003°38'4 7.9
2017-May-25 08:30N 47°35' W 003°33'4 8.7
2017-May-25 08:00N 47°33' W 003°28'5 9.7
2017-May-25 07:30N 47°30' W 003°22'510.5
2017-May-25 07:00N 47°26' W 003°16'510.6
2017-May-25 06:30N 47°24' W 003°09'510.2
2017-May-25 06:00N 47°21' W 003°03'5 9.3
2017-May-25 05:30N 47°18' W 002°58'5 9.5
2017-May-25 05:00N 47°14' W 002°53'5 9.7
2017-May-25 04:30N 47°11' W 002°49'5 9.5
2017-May-25 04:00N 47°07' W 002°44'5 9.4
2017-May-25 03:30N 47°03' W 002°40'5 9.2
2017-May-25 03:00N 46°60' W 002°35'5 9.0
2017-May-25 02:30N 46°57' W 002°31'5 9.0
2017-May-25 01:55N 46°53' W 002°26'4 9.0
2017-May-25 01:30N 46°50' W 002°22'4 8.7
2017-May-25 01:00N 46°47' W 002°18'5 9.2
2017-May-25 00:28N 46°43' W 002°13'5 9.6
2017-May-24 23:54N 46°39' W 002°08'4 9.6
2017-May-24 23:30N 46°36' W 002°05'5 9.6
2017-May-24 23:00N 46°32' W 002°01'5 9.5
2017-May-24 22:30N 46°28' W 001°57'5 9.5
2017-May-24 22:00N 46°24' W 001°53'5 9.6
2017-May-24 21:30N 46°20' W 001°50'5 9.9
2017-May-24 20:58N 46°15' W 001°45'5 9.8
2017-May-24 20:30N 46°12' W 001°41'2 0.5
2017-May-24 16:16N 46°10' W 001°40'310.4
2017-May-24 16:00N 46°12' W 001°41'510.3
2017-May-24 15:30N 46°17' W 001°43'510.4
2017-May-24 15:00N 46°22' W 001°45'510.2
2017-May-24 14:31N 46°27' W 001°47'3 3.0
2017-May-24 13:30N 46°30' W 001°48'0 0.0
2017-May-24 13:00N 46°30' W 001°48'0 0.0
2017-May-24 12:30N 46°30' W 001°48'0 0.4
2017-May-24 12:01N 46°30' W 001°48'2 3.1
2017-May-24 11:30N 46°28' W 001°47'0 0.0
2017-May-24 10:58N 46°28' W 001°47'0 0.0
2017-May-24 10:28N 46°28' W 001°47'0 0.0
2017-May-24 09:58N 46°28' W 001°47'0 0.0
2017-May-24 09:29N 46°28' W 001°47'0 0.1
2017-May-24 09:00N 46°28' W 001°47'1 2.2
2017-May-24 08:30N 46°27' W 001°46'4 8.5
2017-May-24 08:00N 46°23' W 001°45'4 8.2
2017-May-24 07:31N 46°19' W 001°44'4 8.0
2017-May-24 07:01N 46°15' W 001°43'11 7.1
2017-May-24 05:26N 46°05' W 001°35'0 0.7
2017-May-24 05:00N 46°05' W 001°36'0 0.4
2017-May-24 04:30N 46°05' W 001°36'0 0.4
2017-May-24 03:58N 46°05' W 001°35'0 0.1
2017-May-24 03:25N 46°05' W 001°35'1 1.8
2017-May-24 02:59N 46°05' W 001°36'5 9.2
2017-May-24 02:29N 46°09' W 001°40'5 9.7
2017-May-24 02:00N 46°13' W 001°43'5 9.8
2017-May-24 01:31N 46°17' W 001°47'5 9.8
2017-May-24 01:00N 46°21' W 001°51'5 9.8
2017-May-24 00:30N 46°25' W 001°55'5 9.6
2017-May-24 00:00N 46°29' W 001°59'5 9.5
2017-May-23 23:31N 46°33' W 002°03'5 9.6
2017-May-23 23:00N 46°37' W 002°07'5 9.5
2017-May-23 22:30N 46°41' W 002°11'5 9.2
2017-May-23 22:00N 46°45' W 002°15'5 9.4
2017-May-23 21:31N 46°48' W 002°19'5 9.3
2017-May-23 21:00N 46°52' W 002°24'13 9.0
2017-May-23 19:32N 47°02' W 002°37'110.7
2017-May-23 19:24N 47°03' W 002°39'4 8.9
2017-May-23 19:00N 47°05' W 002°42'5 9.3
2017-May-23 18:30N 47°09' W 002°47'5 9.6
2017-May-23 18:00N 47°12' W 002°51'510.5
2017-May-23 17:30N 47°16' W 002°57'510.6
2017-May-23 17:00N 47°20' W 003°02'510.4
2017-May-23 16:30N 47°24' W 003°07'510.0
2017-May-23 16:00N 47°28' W 003°12'510.5
2017-May-23 15:30N 47°32' W 003°16'510.5
2017-May-23 15:00N 47°37' W 003°20'510.0
2017-May-23 14:30N 47°41' W 003°22'3 3.0
2017-May-23 13:30N 47°44' W 003°21'0 0.0
2017-May-23 13:00N 47°44' W 003°21'0 0.0
2017-May-23 12:30N 47°44' W 003°21'0 0.0
2017-May-23 12:00N 47°44' W 003°21'0 0.0
2017-May-23 11:30N 47°44' W 003°21'0 0.0
2017-May-23 11:00N 47°44' W 003°21'0 0.0
2017-May-23 10:30N 47°44' W 003°21'0 0.0
2017-May-23 10:00N 47°44' W 003°21'0 0.0
2017-May-23 09:30N 47°44' W 003°21'0 0.0
2017-May-23 09:00N 47°44' W 003°21'0 0.0
2017-May-23 08:30N 47°44' W 003°21'0 0.0
2017-May-23 08:00N 47°44' W 003°21'0 0.0
2017-May-23 07:30N 47°44' W 003°21'0 0.0
2017-May-23 07:00N 47°44' W 003°21'0 0.0
2017-May-23 06:30N 47°44' W 003°21'0 0.0
2017-May-23 06:00N 47°44' W 003°21'0 0.0
2017-May-23 05:30N 47°44' W 003°21'0 0.0
2017-May-23 05:00N 47°44' W 003°21'0 0.0
2017-May-23 04:30N 47°44' W 003°21'0 0.0
2017-May-23 04:00N 47°44' W 003°21'0 0.0
2017-May-23 03:30N 47°44' W 003°21'0 0.0
2017-May-23 03:00N 47°44' W 003°21'0 0.0
2017-May-23 02:30N 47°44' W 003°21'0 0.0
2017-May-23 02:00N 47°44' W 003°21'0 0.0
2017-May-23 01:30N 47°44' W 003°21'0 0.0
2017-May-23 01:00N 47°44' W 003°21'0 0.0
2017-May-23 00:30N 47°44' W 003°21'0 0.0
2017-May-23 00:00N 47°44' W 003°21'0 0.0
2017-May-22 23:30N 47°44' W 003°21'0 0.0
2017-May-22 23:00N 47°44' W 003°21'0 0.0
2017-May-22 22:30N 47°44' W 003°21'0 0.0
2017-May-22 22:00N 47°44' W 003°21'0 0.0
2017-May-22 21:30N 47°44' W 003°21'0 0.0
2017-May-22 21:00N 47°44' W 003°21'0 0.0
2017-May-22 20:30N 47°44' W 003°21'0 0.0
2017-May-22 20:00N 47°44' W 003°21'0 0.0
2017-May-22 19:30N 47°44' W 003°21'0 0.0
2017-May-22 19:00N 47°44' W 003°21'0 0.0
2017-May-22 18:30N 47°44' W 003°21'0 0.0
2017-May-22 18:01N 47°44' W 003°21'0 0.0
2017-May-22 17:30N 47°44' W 003°21'0 0.0
2017-May-22 17:00N 47°44' W 003°21'0 0.0
2017-May-22 16:31N 47°44' W 003°21'0 0.0
2017-May-22 16:00N 47°44' W 003°21'0 0.0
2017-May-22 15:31N 47°44' W 003°21'0 0.0
2017-May-22 15:00N 47°44' W 003°21'1 1.4
2017-May-22 14:01N 47°45' W 003°19'0 0.0
2017-May-22 13:30N 47°45' W 003°19'0 0.0
2017-May-22 13:01N 47°45' W 003°19'0 0.0
2017-May-22 12:30N 47°45' W 003°19'0 0.0
2017-May-22 12:01N 47°45' W 003°19'1 2.6
2017-May-22 11:31N 47°44' W 003°21'4 7.7
2017-May-22 11:00N 47°41' W 003°24'1 1.9
2017-May-22 10:30N 47°40' W 003°25'0 0.0
2017-May-22 09:59N 47°40' W 003°25'0 0.0
2017-May-22 09:29N 47°40' W 003°25'0 0.0
2017-May-22 08:59N 47°40' W 003°25'0 0.0
2017-May-22 08:29N 47°40' W 003°25'0 0.0
2017-May-22 07:59N 47°40' W 003°25'0 0.0
2017-May-22 07:29N 47°40' W 003°25'0 1.0
2017-May-22 07:00N 47°40' W 003°24'4 8.9
2017-May-22 06:30N 47°37' W 003°20'5 9.3
2017-May-22 06:00N 47°33' W 003°16'5 9.4
2017-May-22 05:30N 47°29' W 003°13'510.1
2017-May-22 05:00N 47°25' W 003°08'5 9.6
2017-May-22 04:30N 47°21' W 003°03'4 9.1
2017-May-22 04:00N 47°18' W 002°59'5 9.1
2017-May-22 03:30N 47°15' W 002°54'5 9.3
2017-May-22 03:00N 47°11' W 002°50'5 9.3
2017-May-22 02:30N 47°08' W 002°45'5 9.7
2017-May-22 02:00N 47°04' W 002°41'5 8.7
2017-May-22 01:28N 47°00' W 002°36'4 8.9
2017-May-22 01:00N 46°57' W 002°32'7 8.7
2017-May-22 00:08N 46°52' W 002°24'1 8.9
2017-May-22 00:00N 46°51' W 002°23'4 8.8
2017-May-21 23:30N 46°48' W 002°19'5 8.6
2017-May-21 22:54N 46°44' W 002°14'5 9.0
2017-May-21 22:23N 46°40' W 002°10'3 8.9
2017-May-21 22:00N 46°37' W 002°07'4 8.8
2017-May-21 21:30N 46°34' W 002°04'4 8.9
2017-May-21 21:00N 46°30' W 001°60'4 8.8
2017-May-21 20:30N 46°27' W 001°56'4 8.9
2017-May-21 20:00N 46°23' W 001°53'4 9.0
2017-May-21 19:30N 46°19' W 001°49'5 8.9
2017-May-21 18:56N 46°15' W 001°45'5 8.8
2017-May-21 18:25N 46°11' W 001°42'6 1.9
2017-May-21 15:01N 46°06' W 001°37'3 9.2
2017-May-21 14:40N 46°08' W 001°40'2 9.7
2017-May-21 14:28N 46°10' W 001°41'1010.0
2017-May-21 13:30N 46°18' W 001°49'5 9.9
2017-May-21 13:00N 46°22' W 001°53'5 9.9
2017-May-21 12:30N 46°26' W 001°58'5 9.6
2017-May-21 12:00N 46°30' W 002°00'5 9.9
2017-May-21 11:30N 46°34' W 002°04'510.0
2017-May-21 11:00N 46°38' W 002°08'1310.0
2017-May-21 09:43N 46°49' W 002°20'410.0
2017-May-21 09:17N 46°52' W 002°24'5 9.8
2017-May-21 08:48N 46°55' W 002°29'5 9.9
2017-May-21 08:15N 46°58' W 002°36'3 9.8
2017-May-21 07:56N 47°00' W 002°39'4 9.4
2017-May-21 07:30N 47°04' W 002°41'610.1
2017-May-21 06:54N 47°09' W 002°46'4 9.8
2017-May-21 06:30N 47°11' W 002°51'510.1
2017-May-21 06:00N 47°15' W 002°56'5 9.3
2017-May-21 05:30N 47°18' W 003°00'5 9.9
2017-May-21 05:00N 47°22' W 003°06'5 9.5
2017-May-21 04:30N 47°25' W 003°11'5 9.4
2017-May-21 04:00N 47°26' W 003°18'5 9.7
2017-May-21 03:30N 47°28' W 003°24'5 9.9
2017-May-21 03:00N 47°30' W 003°31'5 9.9
2017-May-21 02:30N 47°32' W 003°38'5 9.9
2017-May-21 02:00N 47°34' W 003°45'510.1
2017-May-21 01:30N 47°35' W 003°52'2010.3
2017-May-20 23:33N 47°43' W 004°19'1610.2
2017-May-20 21:57N 47°55' W 004°36'510.0
2017-May-20 21:29N 47°58' W 004°40'5 9.4
2017-May-20 21:00N 48°02' W 004°45'3 6.9
2017-May-20 20:30N 48°05' W 004°46'5 9.3
2017-May-20 20:01N 48°10' W 004°46'5 9.7
2017-May-20 19:30N 48°15' W 004°46'5 9.4
2017-May-20 19:00N 48°19' W 004°47'4 8.0
2017-May-20 18:31N 48°23' W 004°48'5 9.1
2017-May-20 18:01N 48°27' W 004°50'5 9.4
2017-May-20 17:30N 48°32' W 004°50'5 9.9
2017-May-20 17:00N 48°37' W 004°47'5 9.7
2017-May-20 16:30N 48°39' W 004°40'510.0
2017-May-20 15:59N 48°41' W 004°33'  
Track history (hours):
 
Tides and Currents Weather Stations Pressure Air Temp Water Temp Dewpoint Dewpoint Depression Visibility Wind Speed Wind Dir Waves Ship Positions

Cotes De Bretagne

Last reported at 2017-May-29 22:30 UTC. Time now 2017-May-29 22:43 UTC.
Position N 47°36' W 003°35'.

Length 75 m; draft 4.2 m.

Type: Dredging. MMSI: 227003850.

Date/timePositionNaut miles runAvg speedWind from/ knotsBaromVisibWave heightAir tempDewpointWater temp
2017-May-29 22:30N 47°36' W 003°35'510.7
2017-May-29 22:00N 47°40' W 003°41'510.7
2017-May-29 21:30N 47°43' W 003°48'710.7
2017-May-29 20:48N 47°47' W 003°57'810.1
2017-May-29 19:58N 47°52' W 004°07'4 1.2
2017-May-29 16:53N 47°56' W 004°07'4 3.9
2017-May-29 15:59N 47°52' W 004°07'5 2.3
2017-May-29 13:58N 47°49' W 004°03'5 9.3
2017-May-29 13:25N 47°46' W 003°56'4 9.4
2017-May-29 12:58N 47°44' W 003°50'4 9.3
2017-May-29 12:30N 47°42' W 003°45'5 9.2
2017-May-29 11:56N 47°38' W 003°39'4 9.0
2017-May-29 11:30N 47°36' W 003°35'5 9.3
2017-May-29 11:00N 47°33' W 003°30'5 9.2
2017-May-29 10:30N 47°30' W 003°25'5 9.5
2017-May-29 10:00N 47°27' W 003°19'5 9.7
2017-May-29 09:30N 47°25' W 003°13'4 8.9
2017-May-29 09:00N 47°23' W 003°07'4 8.0
2017-May-29 08:30N 47°20' W 003°02'4 7.9
2017-May-29 08:00N 47°17' W 002°58'4 8.6
2017-May-29 07:30N 47°14' W 002°54'20 8.4
2017-May-29 05:07N 46°59' W 002°35'1 8.8
2017-May-29 05:00N 46°58' W 002°34'8 8.7
2017-May-29 04:02N 46°52' W 002°25'1 9.0
2017-May-29 03:59N 46°52' W 002°25'4 8.8
2017-May-29 03:30N 46°49' W 002°20'4 8.7
2017-May-29 03:00N 46°46' W 002°16'5 9.3
2017-May-29 02:25N 46°41' W 002°11'4 9.2
2017-May-29 01:59N 46°38' W 002°08'4 9.1
2017-May-29 01:30N 46°34' W 002°04'5 9.3
2017-May-29 01:00N 46°31' W 002°00'5 9.2
2017-May-29 00:30N 46°27' W 001°57'5 9.2
2017-May-29 00:00N 46°23' W 001°53'5 9.4
2017-May-28 23:30N 46°19' W 001°49'5 9.6
2017-May-28 23:00N 46°15' W 001°45'5 9.2
2017-May-28 22:29N 46°11' W 001°41'5 9.5
2017-May-28 22:00N 46°07' W 001°38'3 5.6
2017-May-28 21:30N 46°05' W 001°35'0 0.4
2017-May-28 21:00N 46°05' W 001°36'0 0.3
2017-May-28 20:30N 46°05' W 001°35'0 0.1
2017-May-28 20:00N 46°05' W 001°35'1 2.5
2017-May-28 19:31N 46°06' W 001°37'510.3
2017-May-28 19:00N 46°10' W 001°41'710.3
2017-May-28 18:22N 46°16' W 001°45'410.4
2017-May-28 18:00N 46°20' W 001°45'510.3
2017-May-28 17:30N 46°25' W 001°46'5 9.4
2017-May-28 17:00N 46°30' W 001°48'0 0.7
2017-May-28 16:30N 46°30' W 001°48'0 0.0
2017-May-28 16:00N 46°30' W 001°48'0 0.0
2017-May-28 15:30N 46°30' W 001°48'1 2.0
2017-May-28 15:00N 46°29' W 001°47'6 6.5
2017-May-28 14:00N 46°23' W 001°46'4 8.6
2017-May-28 13:30N 46°18' W 001°46'6 9.0
2017-May-28 12:53N 46°13' W 001°44'3 9.0
2017-May-28 12:30N 46°10' W 001°41'6 1.9
2017-May-28 09:12N 46°05' W 001°35'0 1.0
2017-May-28 09:00N 46°05' W 001°36'5 7.8
2017-May-28 08:22N 46°08' W 001°42'410.3
2017-May-28 07:57N 46°11' W 001°46'510.9
2017-May-28 07:30N 46°15' W 001°50'610.9
2017-May-28 07:00N 46°20' W 001°53'510.9
2017-May-28 06:30N 46°25' W 001°57'510.8
2017-May-28 06:00N 46°30' W 002°00'510.9
2017-May-28 05:30N 46°34' W 002°04'510.7
2017-May-28 05:00N 46°39' W 002°09'510.7
2017-May-28 04:30N 46°43' W 002°13'510.9
2017-May-28 04:00N 46°47' W 002°19'510.9
2017-May-28 03:30N 46°51' W 002°24'510.5
2017-May-28 03:01N 46°55' W 002°29'510.1
2017-May-28 02:31N 46°59' W 002°34'810.1
2017-May-28 01:45N 47°04' W 002°42'3 9.6
2017-May-28 01:27N 47°06' W 002°45'510.0
2017-May-28 01:00N 47°09' W 002°50'510.2
2017-May-28 00:30N 47°13' W 002°54'5 9.5
2017-May-28 00:00N 47°17' W 002°59'5 9.9
2017-May-27 23:30N 47°21' W 003°04'5 9.8
2017-May-27 23:00N 47°24' W 003°09'5 9.3
2017-May-27 22:30N 47°26' W 003°15'5 9.7
2017-May-27 22:00N 47°28' W 003°21'510.3
2017-May-27 21:30N 47°32' W 003°27'510.6
2017-May-27 21:00N 47°35' W 003°33'510.7
2017-May-27 20:30N 47°39' W 003°39'510.8
2017-May-27 20:00N 47°42' W 003°46'510.7
2017-May-27 19:30N 47°45' W 003°52'710.6
2017-May-27 18:54N 47°48' W 004°01'8 8.8
2017-May-27 17:58N 47°54' W 004°09'5 3.7
2017-May-27 16:44N 47°58' W 004°06'0 0.0
2017-May-27 15:58N 47°58' W 004°06'5 4.6
2017-May-27 14:58N 47°54' W 004°09'6 6.1
2017-May-27 13:58N 47°49' W 004°03'3 6.7
2017-May-27 13:27N 47°47' W 003°59'3 6.8
2017-May-27 12:57N 47°46' W 003°54'3 7.4
2017-May-27 12:30N 47°44' W 003°50'4 7.5
2017-May-27 12:00N 47°42' W 003°46'4 7.4
2017-May-27 11:30N 47°40' W 003°41'4 7.3
2017-May-27 11:00N 47°37' W 003°37'4 7.4
2017-May-27 10:30N 47°35' W 003°33'4 8.4
2017-May-27 10:00N 47°32' W 003°28'4 8.2
2017-May-27 09:30N 47°29' W 003°24'4 8.4
2017-May-27 09:00N 47°27' W 003°19'5 9.3
2017-May-27 08:30N 47°25' W 003°13'510.1
2017-May-27 08:00N 47°22' W 003°06'4 8.8
2017-May-27 07:30N 47°19' W 003°01'4 8.5
2017-May-27 07:00N 47°16' W 002°57'4 8.7
2017-May-27 06:30N 47°13' W 002°53'4 8.4
2017-May-27 06:00N 47°09' W 002°49'33 7.8
2017-May-27 01:47N 46°46' W 002°16'3 8.5
2017-May-27 01:26N 46°43' W 002°13'4 8.8
2017-May-27 00:58N 46°40' W 002°10'4 8.6
2017-May-27 00:29N 46°37' W 002°06'4 8.7
2017-May-27 00:00N 46°33' W 002°03'4 8.6
2017-May-26 23:30N 46°30' W 001°59'4 8.7
2017-May-26 23:00N 46°26' W 001°56'4 8.9
2017-May-26 22:30N 46°22' W 001°52'4 8.9
2017-May-26 22:00N 46°18' W 001°49'5 9.0
2017-May-26 21:24N 46°14' W 001°45'4 8.7
2017-May-26 20:58N 46°11' W 001°42'4 9.2
2017-May-26 20:30N 46°07' W 001°38'3 5.8
2017-May-26 20:00N 46°05' W 001°35'0 0.6
2017-May-26 19:30N 46°05' W 001°36'0 0.1
2017-May-26 19:01N 46°05' W 001°36'0 0.5
2017-May-26 18:30N 46°05' W 001°35'0 1.0
2017-May-26 18:00N 46°05' W 001°36'510.1
2017-May-26 17:30N 46°09' W 001°40'611.0
2017-May-26 17:00N 46°14' W 001°43'510.8
2017-May-26 16:30N 46°20' W 001°45'510.5
2017-May-26 16:00N 46°25' W 001°46'5 9.6
2017-May-26 15:30N 46°30' W 001°48'0 0.9
2017-May-26 15:00N 46°30' W 001°48'0 0.0
2017-May-26 14:00N 46°30' W 001°48'1 1.1
2017-May-26 13:30N 46°29' W 001°48'3 5.2
2017-May-26 13:00N 46°27' W 001°46'3 6.6
2017-May-26 12:30N 46°24' W 001°45'4 9.0
2017-May-26 12:00N 46°20' W 001°43'510.1
2017-May-26 11:30N 46°15' W 001°40'10 4.3
2017-May-26 09:09N 46°05' W 001°36'0 0.5
2017-May-26 08:58N 46°05' W 001°36'0 0.2
2017-May-26 08:30N 46°05' W 001°36'0 0.1
2017-May-26 08:00N 46°05' W 001°36'1 1.6
2017-May-26 07:30N 46°06' W 001°37'5 9.6
2017-May-26 07:00N 46°10' W 001°40'510.5
2017-May-26 06:29N 46°14' W 001°44'510.4
2017-May-26 06:00N 46°18' W 001°49'510.4
2017-May-26 05:30N 46°23' W 001°53'510.4
2017-May-26 05:00N 46°27' W 001°57'510.5
2017-May-26 04:30N 46°31' W 002°01'510.6
2017-May-26 04:00N 46°36' W 002°06'510.6
2017-May-26 03:30N 46°40' W 002°10'510.7
2017-May-26 03:00N 46°44' W 002°15'611.1
2017-May-26 02:29N 46°49' W 002°20'510.9
2017-May-26 02:00N 46°52' W 002°26'1010.3
2017-May-26 01:03N 47°00' W 002°35'110.1
2017-May-26 00:57N 47°01' W 002°35'610.1
2017-May-26 00:21N 47°06' W 002°41'410.4
2017-May-26 00:00N 47°08' W 002°45'5 9.8
2017-May-25 23:30N 47°12' W 002°50'5 9.7
2017-May-25 23:00N 47°16' W 002°54'5 9.4
2017-May-25 22:30N 47°19' W 002°59'5 9.5
2017-May-25 22:00N 47°22' W 003°05'5 9.7
2017-May-25 21:30N 47°24' W 003°11'5 9.6
2017-May-25 21:00N 47°27' W 003°17'5 9.5
2017-May-25 20:30N 47°30' W 003°22'510.0
2017-May-25 20:00N 47°33' W 003°28'510.0
2017-May-25 19:30N 47°36' W 003°34'5 9.9
2017-May-25 19:00N 47°39' W 003°40'510.1
2017-May-25 18:30N 47°42' W 003°46'1010.2
2017-May-25 17:33N 47°47' W 003°58'610.0
2017-May-25 16:58N 47°50' W 004°05'8 6.1
2017-May-25 15:38N 47°58' W 004°06'9 2.9
2017-May-25 12:33N 47°49' W 004°05'14 5.7
2017-May-25 10:10N 47°43' W 003°48'1 6.2
2017-May-25 10:00N 47°42' W 003°47'4 7.4
2017-May-25 09:30N 47°40' W 003°42'4 7.7
2017-May-25 09:00N 47°37' W 003°38'4 7.9
2017-May-25 08:30N 47°35' W 003°33'4 8.7
2017-May-25 08:00N 47°33' W 003°28'5 9.7
2017-May-25 07:30N 47°30' W 003°22'510.5
2017-May-25 07:00N 47°26' W 003°16'510.6
2017-May-25 06:30N 47°24' W 003°09'510.2
2017-May-25 06:00N 47°21' W 003°03'5 9.3
2017-May-25 05:30N 47°18' W 002°58'5 9.5
2017-May-25 05:00N 47°14' W 002°53'5 9.7
2017-May-25 04:30N 47°11' W 002°49'5 9.5
2017-May-25 04:00N 47°07' W 002°44'5 9.4
2017-May-25 03:30N 47°03' W 002°40'5 9.2
2017-May-25 03:00N 46°60' W 002°35'5 9.0
2017-May-25 02:30N 46°57' W 002°31'5 9.0
2017-May-25 01:55N 46°53' W 002°26'4 9.0
2017-May-25 01:30N 46°50' W 002°22'4 8.7
2017-May-25 01:00N 46°47' W 002°18'5 9.2
2017-May-25 00:28N 46°43' W 002°13'5 9.6
2017-May-24 23:54N 46°39' W 002°08'4 9.6
2017-May-24 23:30N 46°36' W 002°05'5 9.6
2017-May-24 23:00N 46°32' W 002°01'5 9.5
2017-May-24 22:30N 46°28' W 001°57'5 9.5
2017-May-24 22:00N 46°24' W 001°53'5 9.6
2017-May-24 21:30N 46°20' W 001°50'5 9.9
2017-May-24 20:58N 46°15' W 001°45'5 9.8
2017-May-24 20:30N 46°12' W 001°41'2 0.5
2017-May-24 16:16N 46°10' W 001°40'310.4
2017-May-24 16:00N 46°12' W 001°41'510.3
2017-May-24 15:30N 46°17' W 001°43'510.4
2017-May-24 15:00N 46°22' W 001°45'510.2
2017-May-24 14:31N 46°27' W 001°47'3 3.0
2017-May-24 13:30N 46°30' W 001°48'0 0.0
2017-May-24 13:00N 46°30' W 001°48'0 0.0
2017-May-24 12:30N 46°30' W 001°48'0 0.4
2017-May-24 12:01N 46°30' W 001°48'2 3.1
2017-May-24 11:30N 46°28' W 001°47'0 0.0
2017-May-24 10:58N 46°28' W 001°47'0 0.0
2017-May-24 10:28N 46°28' W 001°47'0 0.0
2017-May-24 09:58N 46°28' W 001°47'0 0.0
2017-May-24 09:29N 46°28' W 001°47'0 0.1
2017-May-24 09:00N 46°28' W 001°47'1 2.2
2017-May-24 08:30N 46°27' W 001°46'4 8.5
2017-May-24 08:00N 46°23' W 001°45'4 8.2
2017-May-24 07:31N 46°19' W 001°44'4 8.0
2017-May-24 07:01N 46°15' W 001°43'11 7.1
2017-May-24 05:26N 46°05' W 001°35'0 0.7
2017-May-24 05:00N 46°05' W 001°36'0 0.4
2017-May-24 04:30N 46°05' W 001°36'0 0.4
2017-May-24 03:58N 46°05' W 001°35'0 0.1
2017-May-24 03:25N 46°05' W 001°35'1 1.8
2017-May-24 02:59N 46°05' W 001°36'5 9.2
2017-May-24 02:29N 46°09' W 001°40'5 9.7
2017-May-24 02:00N 46°13' W 001°43'5 9.8
2017-May-24 01:31N 46°17' W 001°47'5 9.8
2017-May-24 01:00N 46°21' W 001°51'5 9.8
2017-May-24 00:30N 46°25' W 001°55'5 9.6
2017-May-24 00:00N 46°29' W 001°59'5 9.5
2017-May-23 23:31N 46°33' W 002°03'5 9.6
2017-May-23 23:00N 46°37' W 002°07'5 9.5
2017-May-23 22:30N 46°41' W 002°11'5 9.2
2017-May-23 22:00N 46°45' W 002°15'5 9.4
2017-May-23 21:31N 46°48' W 002°19'5 9.3
2017-May-23 21:00N 46°52' W 002°24'13 9.0
2017-May-23 19:32N 47°02' W 002°37'110.7
2017-May-23 19:24N 47°03' W 002°39'4 8.9
2017-May-23 19:00N 47°05' W 002°42'5 9.3
2017-May-23 18:30N 47°09' W 002°47'5 9.6
2017-May-23 18:00N 47°12' W 002°51'510.5
2017-May-23 17:30N 47°16' W 002°57'510.6
2017-May-23 17:00N 47°20' W 003°02'510.4
2017-May-23 16:30N 47°24' W 003°07'510.0
2017-May-23 16:00N 47°28' W 003°12'510.5
2017-May-23 15:30N 47°32' W 003°16'510.5
2017-May-23 15:00N 47°37' W 003°20'510.0
2017-May-23 14:30N 47°41' W 003°22'3 3.0
2017-May-23 13:30N 47°44' W 003°21'0 0.0
2017-May-23 13:00N 47°44' W 003°21'0 0.0
2017-May-23 12:30N 47°44' W 003°21'0 0.0
2017-May-23 12:00N 47°44' W 003°21'0 0.0
2017-May-23 11:30N 47°44' W 003°21'0 0.0
2017-May-23 11:00N 47°44' W 003°21'0 0.0
2017-May-23 10:30N 47°44' W 003°21'0 0.0
2017-May-23 10:00N 47°44' W 003°21'0 0.0
2017-May-23 09:30N 47°44' W 003°21'0 0.0
2017-May-23 09:00N 47°44' W 003°21'0 0.0
2017-May-23 08:30N 47°44' W 003°21'0 0.0
2017-May-23 08:00N 47°44' W 003°21'0 0.0
2017-May-23 07:30N 47°44' W 003°21'0 0.0
2017-May-23 07:00N 47°44' W 003°21'0 0.0
2017-May-23 06:30N 47°44' W 003°21'0 0.0
2017-May-23 06:00N 47°44' W 003°21'0 0.0
2017-May-23 05:30N 47°44' W 003°21'0 0.0
2017-May-23 05:00N 47°44' W 003°21'0 0.0
2017-May-23 04:30N 47°44' W 003°21'0 0.0
2017-May-23 04:00N 47°44' W 003°21'0 0.0
2017-May-23 03:30N 47°44' W 003°21'0 0.0
2017-May-23 03:00N 47°44' W 003°21'0 0.0
2017-May-23 02:30N 47°44' W 003°21'0 0.0
2017-May-23 02:00N 47°44' W 003°21'0 0.0
2017-May-23 01:30N 47°44' W 003°21'0 0.0
2017-May-23 01:00N 47°44' W 003°21'0 0.0
2017-May-23 00:30N 47°44' W 003°21'0 0.0
2017-May-23 00:00N 47°44' W 003°21'0 0.0
2017-May-22 23:30N 47°44' W 003°21'0 0.0
2017-May-22 23:00N 47°44' W 003°21'0 0.0
2017-May-22 22:30N 47°44' W 003°21'0 0.0
2017-May-22 22:00N 47°44' W 003°21'0 0.0
2017-May-22 21:30N 47°44' W 003°21'0 0.0
2017-May-22 21:00N 47°44' W 003°21'0 0.0
2017-May-22 20:30N 47°44' W 003°21'0 0.0
2017-May-22 20:00N 47°44' W 003°21'0 0.0
2017-May-22 19:30N 47°44' W 003°21'0 0.0
2017-May-22 19:00N 47°44' W 003°21'0 0.0
2017-May-22 18:30N 47°44' W 003°21'0 0.0
2017-May-22 18:01N 47°44' W 003°21'0 0.0
2017-May-22 17:30N 47°44' W 003°21'0 0.0
2017-May-22 17:00N 47°44' W 003°21'0 0.0
2017-May-22 16:31N 47°44' W 003°21'0 0.0
2017-May-22 16:00N 47°44' W 003°21'0 0.0
2017-May-22 15:31N 47°44' W 003°21'0 0.0
2017-May-22 15:00N 47°44' W 003°21'1 1.4
2017-May-22 14:01N 47°45' W 003°19'0 0.0
2017-May-22 13:30N 47°45' W 003°19'0 0.0
2017-May-22 13:01N 47°45' W 003°19'0 0.0
2017-May-22 12:30N 47°45' W 003°19'0 0.0
2017-May-22 12:01N 47°45' W 003°19'1 2.6
2017-May-22 11:31N 47°44' W 003°21'4 7.7
2017-May-22 11:00N 47°41' W 003°24'1 1.9
2017-May-22 10:30N 47°40' W 003°25'0 0.0
2017-May-22 09:59N 47°40' W 003°25'0 0.0
2017-May-22 09:29N 47°40' W 003°25'0 0.0
2017-May-22 08:59N 47°40' W 003°25'0 0.0
2017-May-22 08:29N 47°40' W 003°25'0 0.0
2017-May-22 07:59N 47°40' W 003°25'0 0.0
2017-May-22 07:29N 47°40' W 003°25'0 1.0
2017-May-22 07:00N 47°40' W 003°24'4 8.9
2017-May-22 06:30N 47°37' W 003°20'5 9.3
2017-May-22 06:00N 47°33' W 003°16'5 9.4
2017-May-22 05:30N 47°29' W 003°13'510.1
2017-May-22 05:00N 47°25' W 003°08'5 9.6
2017-May-22 04:30N 47°21' W 003°03'4 9.1
2017-May-22 04:00N 47°18' W 002°59'5 9.1
2017-May-22 03:30N 47°15' W 002°54'5 9.3
2017-May-22 03:00N 47°11' W 002°50'5 9.3
2017-May-22 02:30N 47°08' W 002°45'5 9.7
2017-May-22 02:00N 47°04' W 002°41'5 8.7
2017-May-22 01:28N 47°00' W 002°36'4 8.9
2017-May-22 01:00N 46°57' W 002°32'7 8.7
2017-May-22 00:08N 46°52' W 002°24'1 8.9
2017-May-22 00:00N 46°51' W 002°23'4 8.8
2017-May-21 23:30N 46°48' W 002°19'5 8.6
2017-May-21 22:54N 46°44' W 002°14'5 9.0
2017-May-21 22:23N 46°40' W 002°10'3 8.9
2017-May-21 22:00N 46°37' W 002°07'4 8.8
2017-May-21 21:30N 46°34' W 002°04'4 8.9
2017-May-21 21:00N 46°30' W 001°60'4 8.8
2017-May-21 20:30N 46°27' W 001°56'4 8.9
2017-May-21 20:00N 46°23' W 001°53'4 9.0
2017-May-21 19:30N 46°19' W 001°49'5 8.9
2017-May-21 18:56N 46°15' W 001°45'5 8.8
2017-May-21 18:25N 46°11' W 001°42'6 1.9
2017-May-21 15:01N 46°06' W 001°37'3 9.2
2017-May-21 14:40N 46°08' W 001°40'2 9.7
2017-May-21 14:28N 46°10' W 001°41'1010.0
2017-May-21 13:30N 46°18' W 001°49'5 9.9
2017-May-21 13:00N 46°22' W 001°53'5 9.9
2017-May-21 12:30N 46°26' W 001°58'5 9.6
2017-May-21 12:00N 46°30' W 002°00'5 9.9
2017-May-21 11:30N 46°34' W 002°04'510.0
2017-May-21 11:00N 46°38' W 002°08'1310.0
2017-May-21 09:43N 46°49' W 002°20'410.0
2017-May-21 09:17N 46°52' W 002°24'5 9.8
2017-May-21 08:48N 46°55' W 002°29'5 9.9
2017-May-21 08:15N 46°58' W 002°36'3 9.8
2017-May-21 07:56N 47°00' W 002°39'4 9.4
2017-May-21 07:30N 47°04' W 002°41'610.1
2017-May-21 06:54N 47°09' W 002°46'4 9.8
2017-May-21 06:30N 47°11' W 002°51'510.1
2017-May-21 06:00N 47°15' W 002°56'5 9.3
2017-May-21 05:30N 47°18' W 003°00'5 9.9
2017-May-21 05:00N 47°22' W 003°06'5 9.5
2017-May-21 04:30N 47°25' W 003°11'5 9.4
2017-May-21 04:00N 47°26' W 003°18'5 9.7
2017-May-21 03:30N 47°28' W 003°24'5 9.9
2017-May-21 03:00N 47°30' W 003°31'5 9.9
2017-May-21 02:30N 47°32' W 003°38'5 9.9
2017-May-21 02:00N 47°34' W 003°45'510.1
2017-May-21 01:30N 47°35' W 003°52'2010.3
2017-May-20 23:33N 47°43' W 004°19'1610.2
2017-May-20 21:57N 47°55' W 004°36'510.0
2017-May-20 21:29N 47°58' W 004°40'5 9.4
2017-May-20 21:00N 48°02' W 004°45'3 6.9
2017-May-20 20:30N 48°05' W 004°46'5 9.3
2017-May-20 20:01N 48°10' W 004°46'5 9.7
2017-May-20 19:30N 48°15' W 004°46'5 9.4
2017-May-20 19:00N 48°19' W 004°47'4 8.0
2017-May-20 18:31N 48°23' W 004°48'5 9.1
2017-May-20 18:01N 48°27' W 004°50'5 9.4
2017-May-20 17:30N 48°32' W 004°50'5 9.9
2017-May-20 17:00N 48°37' W 004°47'5 9.7
2017-May-20 16:30N 48°39' W 004°40'510.0
2017-May-20 15:59N 48°41' W 004°33'  

Dump ship's entire track history